Map

Track Data

SID SEASON NUMBER BASIN SUBBASIN NAME ISO_TIME NATURE LAT LON WMO_WIND WMO_PRES WMO_AGENCY TRACK_TYPE DIST2LAND LANDFALL IFLAG USA_AGENCY USA_ATCF_ID USA_LAT USA_LON USA_RECORD USA_STATUS USA_WIND USA_PRES USA_SSHS USA_R34_NE USA_R34_SE USA_R34_SW USA_R34_NW USA_R50_NE USA_R50_SE USA_R50_SW USA_R50_NW USA_R64_NE USA_R64_SE USA_R64_SW USA_R64_NW USA_POCI USA_ROCI USA_RMW USA_EYE TOKYO_LAT TOKYO_LON TOKYO_GRADE TOKYO_WIND TOKYO_PRES TOKYO_R50_DIR TOKYO_R50_LONG TOKYO_R50_SHORT TOKYO_R30_DIR TOKYO_R30_LONG TOKYO_R30_SHORT TOKYO_LAND CMA_LAT CMA_LON CMA_CAT CMA_WIND CMA_PRES HKO_LAT HKO_LON HKO_CAT HKO_WIND HKO_PRES NEWDELHI_LAT NEWDELHI_LON NEWDELHI_GRADE NEWDELHI_WIND NEWDELHI_PRES NEWDELHI_CI NEWDELHI_DP NEWDELHI_POCI REUNION_LAT REUNION_LON REUNION_TYPE REUNION_WIND REUNION_PRES REUNION_TNUM REUNION_CI REUNION_RMW REUNION_R34_NE REUNION_R34_SE REUNION_R34_SW REUNION_R34_NW REUNION_R50_NE REUNION_R50_SE REUNION_R50_SW REUNION_R50_NW REUNION_R64_NE REUNION_R64_SE REUNION_R64_SW REUNION_R64_NW BOM_LAT BOM_LON BOM_TYPE BOM_WIND BOM_PRES BOM_TNUM BOM_CI BOM_RMW BOM_R34_NE BOM_R34_SE BOM_R34_SW BOM_R34_NW BOM_R50_NE BOM_R50_SE BOM_R50_SW BOM_R50_NW BOM_R64_NE BOM_R64_SE BOM_R64_SW BOM_R64_NW BOM_ROCI BOM_POCI BOM_EYE BOM_POS_METHOD BOM_PRES_METHOD NADI_LAT NADI_LON NADI_CAT NADI_WIND NADI_PRES WELLINGTON_LAT WELLINGTON_LON WELLINGTON_WIND WELLINGTON_PRES DS824_LAT DS824_LON DS824_STAGE DS824_WIND DS824_PRES TD9636_LAT TD9636_LON TD9636_STAGE TD9636_WIND TD9636_PRES TD9635_LAT TD9635_LON TD9635_WIND TD9635_PRES TD9635_ROCI NEUMANN_LAT NEUMANN_LON NEUMANN_CLASS NEUMANN_WIND NEUMANN_PRES MLC_LAT MLC_LON MLC_CLASS MLC_WIND MLC_PRES USA_GUST BOM_GUST BOM_GUST_PER REUNION_GUST REUNION_GUST_PER USA_SEAHGT USA_SEARAD_NE USA_SEARAD_SE USA_SEARAD_SW USA_SEARAD_NW STORM_SPEED STORM_DIR
1992197N11266 1992 52 EP MM GEORGETTE 1992-07-14 12:00:00 TS 10.8000 -94.2000 25 1011 hurdat_epa main 461 458 O_____________ hurdat_epa EP081992 10.8000 -94.2000 TD 25 1011 -1 12 295
1992197N11266 1992 52 EP MM GEORGETTE 1992-07-14 15:00:00 TS 11.0477 -94.7474 main 476 473 P_____________ EP081992 11.0477 -94.7474 TD 27 1010 -1 12 295
1992197N11266 1992 52 EP MM GEORGETTE 1992-07-14 18:00:00 TS 11.3000 -95.3000 30 1010 hurdat_epa main 491 467 O_____________ hurdat_epa EP081992 11.3000 -95.3000 TD 30 1010 -1 12 295
1992197N11266 1992 52 EP MM GEORGETTE 1992-07-14 21:00:00 TS 11.5574 -95.8575 main 454 426 P_____________ EP081992 11.5574 -95.8575 TD 30 1009 -1 12 295
1992197N11266 1992 52 EP MM GEORGETTE 1992-07-15 00:00:00 TS 11.8000 -96.4000 30 1009 hurdat_epa main 426 403 O_____________ hurdat_epa EP081992 11.8000 -96.4000 TD 30 1009 -1 11 294
1992197N11266 1992 52 EP MM GEORGETTE 1992-07-15 03:00:00 TS 12.0149 -96.9151 main 404 388 P_____________ EP081992 12.0149 -96.9151 TD 32 1007 -1 11 292
1992197N11266 1992 52 EP MM GEORGETTE 1992-07-15 06:00:00 TS 12.2000 -97.4000 35 1005 hurdat_epa main 390 380 O_____________ hurdat_epa EP081992 12.2000 -97.4000 TS 35 1005 0 10 291
1992197N11266 1992 52 EP MM GEORGETTE 1992-07-15 09:00:00 TS 12.3649 -97.8576 main 384 382 P_____________ EP081992 12.3649 -97.8576 TS 40 1002 0 9 289
1992197N11266 1992 52 EP MM GEORGETTE 1992-07-15 12:00:00 TS 12.5000 -98.3000 45 1000 hurdat_epa main 392 388 O_____________ hurdat_epa EP081992 12.5000 -98.3000 TS 45 1000 0 9 286
1992197N11266 1992 52 EP MM GEORGETTE 1992-07-15 15:00:00 TS 12.6149 -98.7500 main 395 387 P_____________ EP081992 12.6149 -98.7500 TS 50 997 0 9 283
1992197N11266 1992 52 EP MM GEORGETTE 1992-07-15 18:00:00 TS 12.7000 -99.2000 55 994 hurdat_epa main 399 399 O_____________ hurdat_epa EP081992 12.7000 -99.2000 TS 55 994 0 9 279
1992197N11266 1992 52 EP MM GEORGETTE 1992-07-15 21:00:00 TS 12.7499 -99.6501 main 420 409 P_____________ EP081992 12.7499 -99.6501 TS 60 991 0 9 277
1992197N11266 1992 52 EP MM GEORGETTE 1992-07-16 00:00:00 TS 12.8000 -100.100 65 988 hurdat_epa main 423 422 O_____________ hurdat_epa EP081992 12.8000 -100.100 HU 65 988 1 9 280
1992197N11266 1992 52 EP MM GEORGETTE 1992-07-16 03:00:00 TS 12.8999 -100.542 main 432 430 P_____________ EP081992 12.8999 -100.542 HU 65 986 1 9 283
1992197N11266 1992 52 EP MM GEORGETTE 1992-07-16 06:00:00 TS 13.0000 -101.000 65 984 hurdat_epa main 437 437 O_____________ hurdat_epa EP081992 13.0000 -101.000 HU 65 984 1 9 280
1992197N11266 1992 52 EP MM GEORGETTE 1992-07-16 09:00:00 TS 13.0574 -101.493 main 447 447 P_____________ EP081992 13.0574 -101.493 HU 67 982 1 10 276
1992197N11266 1992 52 EP MM GEORGETTE 1992-07-16 12:00:00 TS 13.1000 -102.000 70 981 hurdat_epa main 472 472 O_____________ hurdat_epa EP081992 13.1000 -102.000 HU 70 981 1 10 275
1992197N11266 1992 52 EP MM GEORGETTE 1992-07-16 15:00:00 TS 13.1424 -102.500 main 493 486 P_____________ EP081992 13.1424 -102.500 HU 72 979 1 10 276
1992197N11266 1992 52 EP MM GEORGETTE 1992-07-16 18:00:00 TS 13.2000 -103.000 75 978 hurdat_epa main 502 502 O_____________ hurdat_epa EP081992 13.2000 -103.000 HU 75 978 1 10 278
1992197N11266 1992 52 EP MM GEORGETTE 1992-07-16 21:00:00 TS 13.2774 -103.500 main 516 516 P_____________ EP081992 13.2774 -103.500 HU 77 976 1 10 282
1992197N11266 1992 52 EP MM GEORGETTE 1992-07-17 00:00:00 TS 13.4000 -104.000 80 975 hurdat_epa main 535 528 O_____________ hurdat_epa EP081992 13.4000 -104.000 HU 80 975 1 10 288
1992197N11266 1992 52 EP MM GEORGETTE 1992-07-17 03:00:00 TS 13.5849 -104.500 main 531 524 P_____________ EP081992 13.5849 -104.500 HU 82 973 1 11 292
1992197N11266 1992 52 EP MM GEORGETTE 1992-07-17 06:00:00 TS 13.8000 -105.000 85 972 hurdat_epa main 528 521 O_____________ hurdat_epa EP081992 13.8000 -105.000 HU 85 972 2 11 292
1992197N11266 1992 52 EP MM GEORGETTE 1992-07-17 09:00:00 TS 13.9849 -105.500 main 526 525 P_____________ EP081992 13.9849 -105.500 HU 87 971 2 11 292
1992197N11266 1992 52 EP MM GEORGETTE 1992-07-17 12:00:00 TS 14.2000 -106.000 90 970 hurdat_epa main 530 525 O_____________ hurdat_epa EP081992 14.2000 -106.000 HU 90 970 2 11 297
1992197N11266 1992 52 EP MM GEORGETTE 1992-07-17 15:00:00 TS 14.4849 -106.500 main 532 529 P_____________ EP081992 14.4849 -106.500 HU 92 969 2 11 302
1992197N11266 1992 52 EP MM GEORGETTE 1992-07-17 18:00:00 TS 14.8000 -107.000 95 968 hurdat_epa main 540 534 O_____________ hurdat_epa EP081992 14.8000 -107.000 HU 95 968 2 11 303
1992197N11266 1992 52 EP MM GEORGETTE 1992-07-17 21:00:00 TS 15.0998 -107.485 main 541 534 P_____________ EP081992 15.0998 -107.485 HU 95 966 2 11 302
1992197N11266 1992 52 EP MM GEORGETTE 1992-07-18 00:00:00 TS 15.4000 -108.000 95 965 hurdat_epa main 544 542 O_____________ hurdat_epa EP081992 15.4000 -108.000 HU 95 965 2 12 299
1992197N11266 1992 52 EP MM GEORGETTE 1992-07-18 03:00:00 TS 15.6925 -108.585 main 562 561 P_____________ EP081992 15.6925 -108.585 HU 95 964 2 13 297
1992197N11266 1992 52 EP MM GEORGETTE 1992-07-18 06:00:00 TS 16.0000 -109.200 95 964 hurdat_epa main 584 584 O_____________ hurdat_epa EP081992 16.0000 -109.200 HU 95 964 2 13 299
1992197N11266 1992 52 EP MM GEORGETTE 1992-07-18 09:00:00 TS 16.3498 -109.800 main 609 602 P_____________ EP081992 16.3498 -109.800 HU 95 964 2 14 301
1992197N11266 1992 52 EP MM GEORGETTE 1992-07-18 12:00:00 TS 16.7000 -110.400 95 965 hurdat_epa main 634 634 O_____________ hurdat_epa EP081992 16.7000 -110.400 HU 95 965 2 13 300
1992197N11266 1992 52 EP MM GEORGETTE 1992-07-18 15:00:00 TS 17.0224 -111.008 main 668 645 P_____________ EP081992 17.0224 -111.008 HU 95 966 2 13 298
1992197N11266 1992 52 EP MM GEORGETTE 1992-07-18 18:00:00 TS 17.3000 -111.600 95 968 hurdat_epa main 648 638 O_____________ hurdat_epa EP081992 17.3000 -111.600 HU 95 968 2 12 294
1992197N11266 1992 52 EP MM GEORGETTE 1992-07-18 21:00:00 TS 17.5223 -112.165 main 646 639 P_____________ EP081992 17.5223 -112.165 HU 92 969 2 11 291
1992197N11266 1992 52 EP MM GEORGETTE 1992-07-19 00:00:00 TS 17.7000 -112.700 90 970 hurdat_epa main 646 645 O_____________ hurdat_epa EP081992 17.7000 -112.700 HU 90 970 2 11 288
1992197N11266 1992 52 EP MM GEORGETTE 1992-07-19 03:00:00 TS 17.8499 -113.215 main 660 650 P_____________ EP081992 17.8499 -113.215 HU 87 971 2 10 287
1992197N11266 1992 52 EP MM GEORGETTE 1992-07-19 06:00:00 TS 18.0000 -113.700 85 973 hurdat_epa main 669 666 O_____________ hurdat_epa EP081992 18.0000 -113.700 HU 85 973 2 10 292
1992197N11266 1992 52 EP MM GEORGETTE 1992-07-19 09:00:00 TS 18.2149 -114.172 main 683 674 P_____________ EP081992 18.2149 -114.172 HU 82 974 1 9 295
1992197N11266 1992 52 EP MM GEORGETTE 1992-07-19 12:00:00 TS 18.4000 -114.600 80 976 hurdat_epa main 694 694 O_____________ hurdat_epa EP081992 18.4000 -114.600 HU 80 976 1 8 289
1992197N11266 1992 52 EP MM GEORGETTE 1992-07-19 15:00:00 TS 18.4798 -114.965 main 715 715 P_____________ EP081992 18.4798 -114.965 HU 80 977 1 7 279
1992197N11266 1992 52 EP MM GEORGETTE 1992-07-19 18:00:00 TS 18.5000 -115.300 80 979 hurdat_epa main 738 738 O_____________ hurdat_epa EP081992 18.5000 -115.300 HU 80 979 1 7 273
1992197N11266 1992 52 EP MM GEORGETTE 1992-07-19 21:00:00 TS 18.5149 -115.650 main 762 770 P_____________ EP081992 18.5149 -115.650 HU 77 980 1 7 270
1992197N11266 1992 52 EP MM GEORGETTE 1992-07-20 00:00:00 TS 18.5000 -116.000 75 981 hurdat_epa main 794 794 O_____________ hurdat_epa EP081992 18.5000 -116.000 HU 75 981 1 7 266
1992197N11266 1992 52 EP MM GEORGETTE 1992-07-20 03:00:00 TS 18.4724 -116.350 main 816 816 P_____________ EP081992 18.4724 -116.350 HU 75 981 1 7 261
1992197N11266 1992 52 EP MM GEORGETTE 1992-07-20 06:00:00 TS 18.4000 -116.700 75 982 hurdat_epa main 849 849 O_____________ hurdat_epa EP081992 18.4000 -116.700 HU 75 982 1 7 252
1992197N11266 1992 52 EP MM GEORGETTE 1992-07-20 09:00:00 TS 18.2575 -117.058 main 882 882 P_____________ EP081992 18.2575 -117.058 HU 75 981 1 7 246
1992197N11266 1992 52 EP MM GEORGETTE 1992-07-20 12:00:00 TS 18.1000 -117.400 75 980 hurdat_epa main 919 919 O_____________ hurdat_epa EP081992 18.1000 -117.400 HU 75 980 1 7 247
1992197N11266 1992 52 EP MM GEORGETTE 1992-07-20 15:00:00 TS 17.9924 -117.700 main 947 947 P_____________ EP081992 17.9924 -117.700 HU 77 978 1 6 251
1992197N11266 1992 52 EP MM GEORGETTE 1992-07-20 18:00:00 TS 17.9000 -118.000 80 976 hurdat_epa main 975 975 O_____________ hurdat_epa EP081992 17.9000 -118.000 HU 80 976 1 6 252
1992197N11266 1992 52 EP MM GEORGETTE 1992-07-20 21:00:00 TS 17.7999 -118.335 main 1003 1003 P_____________ EP081992 17.7999 -118.335 HU 82 974 1 7 253
1992197N11266 1992 52 EP MM GEORGETTE 1992-07-21 00:00:00 TS 17.7000 -118.700 85 972 hurdat_epa main 1039 1039 O_____________ hurdat_epa EP081992 17.7000 -118.700 HU 85 972 2 7 253
1992197N11266 1992 52 EP MM GEORGETTE 1992-07-21 03:00:00 TS 17.5849 -119.078 main 1075 1075 P_____________ EP081992 17.5849 -119.078 HU 87 971 2 8 255
1992197N11266 1992 52 EP MM GEORGETTE 1992-07-21 06:00:00 TS 17.5000 -119.500 90 970 hurdat_epa main 1111 1111 O_____________ hurdat_epa EP081992 17.5000 -119.500 HU 90 970 2 9 263
1992197N11266 1992 52 EP MM GEORGETTE 1992-07-21 09:00:00 TS 17.4774 -119.970 main 1148 1148 P_____________ EP081992 17.4774 -119.970 HU 92 969 2 10 270
1992197N11266 1992 52 EP MM GEORGETTE 1992-07-21 12:00:00 TS 17.5000 -120.500 95 968 hurdat_epa main 1185 1185 O_____________ hurdat_epa EP081992 17.5000 -120.500 HU 95 968 2 11 274
1992197N11266 1992 52 EP MM GEORGETTE 1992-07-21 15:00:00 TS 17.5423 -121.070 main 1231 1231 P_____________ EP081992 17.5423 -121.070 HU 92 969 2 11 275
1992197N11266 1992 52 EP MM GEORGETTE 1992-07-21 18:00:00 TS 17.6000 -121.700 90 970 hurdat_epa main 1271 1271 O_____________ hurdat_epa EP081992 17.6000 -121.700 HU 90 970 2 13 275
1992197N11266 1992 52 EP MM GEORGETTE 1992-07-21 21:00:00 TS 17.6498 -122.378 main 1327 1320 P_____________ EP081992 17.6498 -122.378 HU 87 972 2 13 274
1992197N11266 1992 52 EP MM GEORGETTE 1992-07-22 00:00:00 TS 17.7000 -123.100 85 974 hurdat_epa main 1379 1379 O_____________ hurdat_epa EP081992 17.7000 -123.100 HU 85 974 2 14 274
1992197N11266 1992 52 EP MM GEORGETTE 1992-07-22 03:00:00 TS 17.7497 -123.835 main 1434 1432 P_____________ EP081992 17.7497 -123.835 HU 80 976 1 14 274
1992197N11266 1992 52 EP MM GEORGETTE 1992-07-22 06:00:00 TS 17.8000 -124.600 75 978 hurdat_epa main 1479 1479 O_____________ hurdat_epa EP081992 17.8000 -124.600 HU 75 978 1 15 274
1992197N11266 1992 52 EP MM GEORGETTE 1992-07-22 09:00:00 TS 17.8573 -125.392 main 1526 1526 P_____________ EP081992 17.8573 -125.392 HU 72 981 1 15 274
1992197N11266 1992 52 EP MM GEORGETTE 1992-07-22 12:00:00 TS 17.9000 -126.200 70 984 hurdat_epa main 1584 1584 O_____________ hurdat_epa EP081992 17.9000 -126.200 HU 70 984 1 15 272
1992197N11266 1992 52 EP MM GEORGETTE 1992-07-22 15:00:00 TS 17.9146 -126.993 main 1644 1644 P_____________ EP081992 17.9146 -126.993 HU 67 986 1 15 270
1992197N11266 1992 52 EP MM GEORGETTE 1992-07-22 18:00:00 TS 17.9000 -127.800 65 989 hurdat_epa main 1706 1706 O_____________ hurdat_epa EP081992 17.9000 -127.800 HU 65 989 1 16 268
1992197N11266 1992 52 EP MM GEORGETTE 1992-07-22 21:00:00 TS 17.8570 -128.628 main 1770 1770 P_____________ EP081992 17.8570 -128.628 HU 60 991 0 16 266
1992197N11266 1992 52 EP MM GEORGETTE 1992-07-23 00:00:00 TS 17.8000 -129.500 55 994 hurdat_epa main 1850 1850 O_____________ hurdat_epa EP081992 17.8000 -129.500 TS 55 994 0 17 267
1992197N11266 1992 52 EP MM GEORGETTE 1992-07-23 03:00:00 TS 17.7571 -130.427 main 1924 1924 P_____________ EP081992 17.7571 -130.427 TS 52 995 0 18 267
1992197N11266 1992 52 EP MM GEORGETTE 1992-07-23 06:00:00 TS 17.7000 -131.400 50 997 hurdat_epa main 2015 2015 O_____________ hurdat_epa EP081992 17.7000 -131.400 TS 50 997 0 19 265
1992197N11266 1992 52 EP MM GEORGETTE 1992-07-23 09:00:00 TS 17.5921 -132.393 main 2108 2108 P_____________ EP081992 17.5921 -132.393 TS 47 998 0 19 264
1992197N11266 1992 52 EP MM GEORGETTE 1992-07-23 12:00:00 TS 17.5000 -133.400 45 999 hurdat_epa main 2201 2172 O_____________ hurdat_epa EP081992 17.5000 -133.400 TS 45 999 0 19 267
1992197N11266 1992 52 EP MM GEORGETTE 1992-07-23 15:00:00 TS 17.4845 -134.400 main 2161 2067 P_____________ EP081992 17.4845 -134.400 TS 42 1000 0 19 270
1992197N11266 1992 52 EP MM GEORGETTE 1992-07-23 18:00:00 TS 17.5000 -135.400 40 1002 hurdat_epa main 2056 1962 O_____________ hurdat_epa EP081992 17.5000 -135.400 TS 40 1002 0 19 270
1992197N11266 1992 52 EP MM GEORGETTE 1992-07-23 21:00:00 TS 17.4995 -136.400 main 1952 1858 P_____________ EP081992 17.4995 -136.400 TS 37 1003 0 19 270
1992197N11266 1992 52 EP MM GEORGETTE 1992-07-24 00:00:00 TS 17.5000 -137.400 35 1005 hurdat_epa main 1847 1753 O_____________ hurdat_epa EP081992 17.5000 -137.400 TS 35 1005 0 19 270
1992197N11266 1992 52 EP MM GEORGETTE 1992-07-24 03:00:00 TS 17.4919 -138.393 main 1743 1649 P_____________ EP081992 17.4919 -138.393 TS 32 1006 -1 19 270
1992197N11266 1992 52 EP MM GEORGETTE 1992-07-24 06:00:00 TS 17.5000 -139.400 30 1007 hurdat_epa main 1638 1534 O_____________ hurdat_epa EP081992 17.5000 -139.400 TD 30 1007 -1 20 271
1992197N11266 1992 52 EP CP GEORGETTE 1992-07-24 09:00:00 TS 17.5347 -140.450 main 1524 1428 P_____________ EP081992 17.5347 -140.450 TD 30 1007 -1 20 273
1992197N11266 1992 52 EP CP GEORGETTE 1992-07-24 12:00:00 TS 17.6000 -141.500 30 1008 hurdat_epa main 1417 1311 O_____________ hurdat_epa EP081992 17.6000 -141.500 TD 30 1008 -1 20 275
1992197N11266 1992 52 EP CP GEORGETTE 1992-07-24 15:00:00 TS 17.7008 -142.518 main 1311 1215 P_____________ EP081992 17.6999 -142.545 TD 30 1008 -1 19 276
1992197N11266 1992 52 EP CP GEORGETTE 1992-07-24 18:00:00 TS 17.8000 -143.440 30 1009 hurdat_epa main 1215 1140 O_____________ hurdat_epa EP081992 17.8000 -143.500 TD 30 1009 -1 16 276
1992197N11266 1992 52 EP CP GEORGETTE 1992-07-24 21:00:00 TS 17.8710 -144.177 main 1130 1057 P_____________ EP081992 17.8708 -144.220 TD 27 1009 -1 15 274
1992197N11266 1992 52 EP CP GEORGETTE 1992-07-25 00:00:00 TS 17.9000 -145.000 25 1010 hurdat_epa main 1047 933 O_____________ hurdat_epa EP081992 17.9000 -145.000 TD 25 1010 -1 19 270
1992197N11266 1992 52 EP CP GEORGETTE 1992-07-25 03:00:00 TS 17.8582 -146.161 main 923 812 P_____________ EP081992 17.8582 -146.155 TD 25 1010 -1 23 267
1992197N11266 1992 52 EP CP GEORGETTE 1992-07-25 06:00:00 TS 17.8000 -147.400 25 1010 hurdat_epa main 802 700 O_____________ hurdat_epa EP081992 17.8000 -147.400 TD 25 1010 -1 22 268
1992197N11266 1992 52 EP CP GEORGETTE 1992-07-25 09:00:00 TS 17.7914 -148.465 main 690 599 P_____________ EP081992 17.7914 -148.465 TD 25 1010 -1 20 270
1992197N11266 1992 52 EP CP GEORGETTE 1992-07-25 12:00:00 TS 17.8000 -149.500 25 1011 hurdat_epa main 589 491 O_____________ hurdat_epa EP081992 17.8000 -149.500 TD 25 1011 -1 20 271
1992197N11266 1992 52 EP CP GEORGETTE 1992-07-25 15:00:00 TS 17.8219 -150.585 main 481 387 P_____________ EP081992 17.8219 -150.585 TD 25 1011 -1 21 270
1992197N11266 1992 52 EP CP GEORGETTE 1992-07-25 18:00:00 TS 17.8000 -151.700 25 1011 hurdat_epa main 377 291 O_____________ hurdat_epa EP081992 17.8000 -151.700 TD 25 1011 -1 21 266
1992197N11266 1992 52 EP CP GEORGETTE 1992-07-25 21:00:00 TS 17.6567 -152.828 main 291 232 P_____________ EP081992 17.6567 -152.828 TD 27 1011 -1 22 262
1992197N11266 1992 52 EP CP GEORGETTE 1992-07-26 00:00:00 TS 17.5000 -154.000 30 1012 hurdat_epa main 227 168 O_____________ hurdat_epa EP081992 17.5000 -154.000 TD 30 1012 -1 23 265
1992197N11266 1992 52 EP CP GEORGETTE 1992-07-26 03:00:00 TS 17.4466 -155.264 main 173 167 P_____________ EP081992 17.4578 -155.279 TD 30 1013 -1 24 268
1992197N11266 1992 52 EP CP GEORGETTE 1992-07-26 06:00:00 TS 17.4000 -156.500 30 1014 hurdat_epa main 187 187 O_____________ hurdat_epa EP081992 17.4000 -156.500 TD 30 1014 -1 22 264
1992197N11266 1992 52 EP CP GEORGETTE 1992-07-26 09:00:00 NR 17.2214 -157.503 main 269 269 P_____________ EP081992 17.2215 -157.510 TD 30 -1 19 258
1992197N11266 1992 52 EP CP GEORGETTE 1992-07-26 12:00:00 NR 17.0000 -158.400 30 1015 cphc main 353 353 O_____________ jtwc_ep EP081992 17.0000 -158.400 30 17 256
1992197N11266 1992 52 EP CP GEORGETTE 1992-07-26 15:00:00 NR 16.7915 -159.270 main 442 442 P_____________ EP081992 16.7912 -159.212 27 18 257
1992197N11266 1992 52 EP CP GEORGETTE 1992-07-26 18:00:00 NR 16.6000 -160.200 25 1016 cphc main 534 534 O_____________ jtwc_ep EP081992 16.6000 -160.100 25 20 259
1992197N11266 1992 52 EP CP GEORGETTE 1992-07-26 21:00:00 NR 16.4203 -161.335 main 643 643 P_____________ EP081992 16.4206 -161.278 25 22 262
1992197N11266 1992 52 EP CP GEORGETTE 1992-07-27 00:00:00 NR 16.3000 -162.500 25 1017 cphc main 697 697 O_____________ jtwc_ep EP081992 16.3000 -162.500 25 21 266
1992197N11266 1992 52 EP CP GEORGETTE 1992-07-27 03:00:00 NR 16.2916 -163.514 main 746 746 P_____________ EP081992 16.2916 -163.529 25 19 270
1992197N11266 1992 52 EP CP GEORGETTE 1992-07-27 06:00:00 NR 16.3000 -164.500 25 1017 cphc main 806 806 O_____________ jtwc_ep EP081992 16.3000 -164.500 25 19 267
1992197N11266 1992 52 EP CP GEORGETTE 1992-07-27 09:00:00 NR 16.2067 -165.520 main 882 882 P_____________ EP081992 16.2065 -165.463 25 20 264
1992197N11266 1992 52 EP CP GEORGETTE 1992-07-27 12:00:00 NR 16.1000 -166.600 25 1017 cphc main 972 972 O_____________ jtwc_ep EP081992 16.1000 -166.500 25 22 266
1992197N11266 1992 52 EP CP GEORGETTE 1992-07-27 15:00:00 NR 16.0366 -167.772 main 1075 1075 P_____________ EP081992 16.0370 -167.700 25 23 268
1992197N11266 1992 52 EP CP GEORGETTE 1992-07-27 18:00:00 NR 16.0000 -169.000 25 1017 cphc main 1176 O_____________ jtwc_ep EP081992 16.0000 -169.000 25 24 268

About IBTrACS Database

This database is a web-friendly format of International Best Track Archive for Climate Stewardship (IBTrACS), a global best track data archive curated by NOAA dating back to 1842.

Updated: 2021-10-21